Flight Track Log - Related Links

Times and Time Zones

All times are in EDT time to prevent confusion due to time zone crossing. See the SWA3943 flight status page for this flight to view local times or setup timezone preferences in your user account.


Time Position Orientation Groundspeed Altitude Reporting Facility
EDT Latitude Longitude Course Direction KTS MPH feet Rate Location/Type
Thu 08:45:56 PM 40.0039 -82.9831 281° West 196 226 3,900  Level Indianapolis Center
Thu 08:46:22 PM 40.0092 -83.0281 279° West 230 265 5,700 2,754 Climbing Indianapolis Center
Thu 08:46:57 PM 39.9853 -83.0450 209° Southwest 219 252 6,700 2,351 Climbing Indianapolis Center
Thu 08:47:59 PM 39.9239 -82.9981 150° Southeast 279 321 9,500 2,683 Climbing Indianapolis Center
Thu 08:49:00 PM 39.9233 -82.8722 90° East 345 397 12,200 2,683 Climbing Indianapolis Center
Thu 08:50:02 PM 39.9306 -82.7425 86° East 357 411 15,000 2,565 Climbing Indianapolis Center
Thu 08:51:04 PM 39.9381 -82.6025 86° East 382 440 17,500 2,683 Climbing Indianapolis Center
Thu 08:52:05 PM 39.9467 -82.4314 86° East 399 459 20,500 2,656 Climbing Indianapolis Center
Thu 08:53:06 PM 39.9542 -82.2808 86° East 409 471 22,900 2,098 Climbing Indianapolis Center
Thu 08:54:08 PM 39.9619 -82.1264 86° East 423 487 24,800 2,000 Climbing Indianapolis Center
Thu 08:55:09 PM 39.9692 -81.9700 87° East 428 493 27,000 1,082 Climbing Indianapolis Center
Thu 08:56:10 PM 39.9764 -81.8108 87° East 434 499 27,000  Level Indianapolis Center
Thu 08:57:12 PM 39.9689 -81.6444 93° East 447 514 27,000  Level Indianapolis Center
Thu 08:58:13 PM 39.9517 -81.4842 98° East 451 519 27,000  Level Indianapolis Center
Thu 08:59:14 PM 39.9342 -81.3256 98° East 455 524 27,000  Level Indianapolis Center
Thu 09:00:15 PM 39.9156 -81.1631 98° East 453 521 27,000  Level Indianapolis Center
Thu 09:01:17 PM 39.8972 -80.9978 98° East 458 527 27,000  Level Indianapolis Center
Thu 09:02:18 PM 39.8786 -80.8369 99° East 450 518 27,000  Level Indianapolis Center
Thu 09:03:19 PM 39.8597 -80.6756 99° East 449 517 27,000  Level Indianapolis Center
Thu 09:04:14 PM 39.8400 -80.4967 98° East 447 514 27,000  Level Cleveland Center
Thu 09:05:14 PM 39.8231 -80.3372 98° East 447 514 27,000  Level Cleveland Center
Thu 09:06:14 PM 39.8017 -80.1806 100° East 447 514 27,000 -578 Level Cleveland Center
Thu 09:08:00 PM 39.7711 -79.9275 99° East 445 512 25,400 -723 Descending Washington Center
Thu 09:09:00 PM 39.7517 -79.7722 99° East 439 505 25,000 -200 Descending Washington Center
Thu 09:10:00 PM 39.7339 -79.6228 99° East 427 491 25,000  Level Washington Center
Thu 09:11:00 PM 39.7136 -79.4761 100° East 417 480 25,000  Level Washington Center
Thu 09:12:00 PM 39.6956 -79.3267 99° East 412 474 25,000  Level Washington Center
Thu 09:13:00 PM 39.6750 -79.1772 100° East 412 474 25,000  Level Washington Center
Thu 09:14:00 PM 39.6522 -79.0281 101° East 412 474 25,000  Level Washington Center
Thu 09:15:00 PM 39.6128 -78.8697 108° East 412 474 25,000 -500 Level Washington Center
Thu 09:16:00 PM 39.5814 -78.7256 106° East 418 481 24,000 -1,450 Descending Washington Center
Thu 09:17:00 PM 39.5514 -78.5872 106° East 413 475 22,100 -2,050 Descending Washington Center
Thu 09:18:00 PM 39.5214 -78.4514 106° East 402 463 19,900 -2,150 Descending Washington Center
Thu 09:19:00 PM 39.4911 -78.3211 107° East 384 442 17,800 -2,050 Descending Washington Center
Thu 09:20:00 PM 39.4625 -78.1964 107° East 372 428 15,800 -1,900 Descending Washington Center
Thu 09:21:00 PM 39.4528 -78.0669 96° East 360 414 14,000 -1,350 Descending Washington Center
Thu 09:22:00 PM 39.4511 -77.9378 91° East 355 409 13,100 -1,000 Descending Washington Center
Thu 09:23:00 PM 39.4494 -77.8061 91° East 355 409 12,000 -850 Descending Washington Center
Thu 09:24:00 PM 39.4497 -77.6797 90° East 355 409 11,400 -500 Descending Washington Center
Thu 09:25:00 PM 39.4456 -77.5506 92° East 355 409 11,000 -200 Descending Washington Center
Thu 09:26:00 PM 39.4456 -77.4217 90° East 355 409 11,000  Level Washington Center
Thu 09:27:00 PM 39.4517 -77.2956 86° East 349 402 11,000  Level Washington Center
Thu 09:27:22 PM 39.4667 -77.2500 67° East 349 402 11,000 -395 Level Potomac TRACON
Thu 09:28:16 PM 39.4667 -77.1333 90° East 345 397 10,500 -895 Descending Potomac TRACON
Thu 09:29:16 PM 39.4333 -77.0500 117° Southeast 284 327 9,300 -1,388 Descending Potomac TRACON
Thu 09:30:17 PM 39.3667 -77.0167 159° South 260 299 7,700 -1,636 Descending Potomac TRACON
Thu 09:31:17 PM 39.3000 -76.9833 159° South 259 298 6,000 -1,000 Descending Potomac TRACON
Thu 09:32:17 PM 39.2500 -76.9167 134° Southeast 226 260 5,700 -900 Descending Potomac TRACON
Thu 09:33:17 PM 39.2333 -76.8500 108° East 201 231 4,200 -1,339 Descending Potomac TRACON
Thu 09:34:18 PM 39.1833 -76.8167 153° Southeast 153 176 3,000 -1,190 Descending Potomac TRACON
Thu 09:35:18 PM 39.1833 -76.7833 90° East 132 152 1,800 -1,100 Descending Potomac TRACON
Thu 09:36:18 PM 39.1833 -76.7333 90° East 131 151 800 -1,000 Descending Potomac TRACON
Thu 09:38:00 PM 39.1667 -76.6667 142° Southeast  Level FlightAware Approximate

Login

Don't have an account? Register now (free) for customized features, flight alerts, and more!